KRCA/RCA METAR and TAF weather

Enter ICAO airport designator
Station Type Date Time Source
KRCA METAR 2020/03/31 12:56 UTC NOAA

KRCA 311256Z AUTO 00000KT 10SM BR SCT150 02/00 A2981 RMK AO2 SLP109 T00150003


Station Type Date Time Source
KRCA Decoded METAR 2020/03/31 12:56 UTC NOAA

Ellsworth Air Force Base, SD, United States (KRCA) 44-09N 103-06W
Mar 31, 2020 - 08:56 AM EDT / 2020.03.31 1256 UTC
Wind: Calm:0
Visibility: 10 mile(s):0
Sky conditions: partly cloudy
Weather: mist
Temperature: 34.7 F (1.5 C)
Dew Point: 32.5 F (0.3 C)
Relative Humidity: 91%
Pressure (altimeter): 29.81 in. Hg (1009 hPa)
ob: KRCA 311256Z AUTO 00000KT 10SM BR SCT150 02/00 A2981 RMK AO2 SLP109 T00150003
cycle: 13

Station Type Date Time Source
KRCA TAF 2020/03/31 11:54 UTC NOAA

TAF KRCA 311101Z 3111/0117 VRB06KT 0400 FG OVC000 QNH2977INS
BECMG 3112/3113 VRB06KT 9999 NSW SCT080 QNH2977INS
BECMG 3120/3121 25012G18KT 9999 SCT070 QNH2970INS
BECMG 3122/3123 VRB06KT 9000 -SHRA BKN060 610703 QNH2961INS
BECMG 0105/0106 VRB06KT 9999 NSW SCT080 QNH2968INS
BECMG 0114/0115 30015G25KT 9999 FEW100 QNH2972INS TX17/3121Z TN03/0112Z

Example: see airport list